»·PEaware :: N734BT KSEE-KLAS

N734BT :: KSEE-KLAS

FLIGHT INFORMATION

Flight Status: Arrived
Operator: Privately registered:
United States
More flights under this callsign
Pilot: Frank A. (981)
Aircraft: CIRRUS VISIONJET
(SF50)
More flights by this aircraft type
Origin: KSEE Gillespie
United States
Destination: KLAS Harry Reid Intl
United States
More flights between these airports :: More routes between these airports
Route: PADRZ2 CHKNN SEBBY YELAH MISEN RNDRZ1
File this flight plan on PilotEdge
Remarks: request 01l @ Klas
Altitude:
(Current/Filed)
23,000ft
Speed:
(Current/Filed)
305kts
Departed: 06-Sep-21 03:43 PM
Arrived: 06-Sep-21 04:54 PM
Distance/Time
Traveled:
215nm/1:11
Distance/Time
To Go:
Arrived

Flight Plot

Page will automatically refresh every two minutes.

Flight plan parsing failed; only flown route is shown


Map Options




Map Legend


Flown Route
Filed Route
Departure Airport
Arrival Airport
Navaid (VOR, NDB)
Fix

Horizontal Profiles

Position Reports

Time Latitude Longitude Heading Altitude Ground
Speed
06-Sep-21 15:26 32.824905 -116.968931 14 382ft 0kts
06-Sep-21 15:26 32.824905 -116.968931 14 382ft 0kts
06-Sep-21 15:27 32.824905 -116.968931 14 382ft 0kts
06-Sep-21 15:28 32.824905 -116.968931 14 382ft 0kts
06-Sep-21 15:29 32.824905 -116.968931 14 382ft 0kts
06-Sep-21 15:31 32.824905 -116.968931 14 382ft 0kts
06-Sep-21 15:31 32.824905 -116.968931 14 382ft 0kts
06-Sep-21 15:32 32.824905 -116.968931 14 382ft 0kts
06-Sep-21 15:33 32.824905 -116.968931 14 382ft 0kts
06-Sep-21 15:34 32.824905 -116.968931 14 382ft 0kts
06-Sep-21 15:35 32.824905 -116.968931 14 382ft 0kts
06-Sep-21 15:36 32.824905 -116.968931 14 382ft 0kts
06-Sep-21 15:37 32.824905 -116.968931 14 382ft 0kts
06-Sep-21 15:38 32.824942 -116.968890 90 382ft 2kts
06-Sep-21 15:39 32.824897 -116.965794 88 388ft 5kts
06-Sep-21 15:40 32.825869 -116.964377 341 392ft 0kts
06-Sep-21 15:41 32.825869 -116.964377 341 392ft 0kts
06-Sep-21 15:42 32.826986 -116.967465 279 383ft 71kts
06-Sep-21 15:43 32.845723 -116.997496 330 2185ft 124kts
06-Sep-21 15:44 32.881593 -117.017357 336 3054ft 201kts
06-Sep-21 15:45 32.924032 -117.063431 278 3816ft 227kts
06-Sep-21 15:46 32.938962 -117.139387 281 4732ft 242kts
06-Sep-21 15:47 32.955764 -117.218452 281 5646ft 249kts
06-Sep-21 15:48 32.972908 -117.299083 281 6559ft 253kts
06-Sep-21 15:49 32.990245 -117.380883 282 7476ft 255kts
06-Sep-21 15:50 33.007749 -117.463766 282 8053ft 261kts
06-Sep-21 15:51 33.025225 -117.546762 282 7995ft 256kts
06-Sep-21 15:52 33.042355 -117.628416 283 7993ft 253kts
06-Sep-21 15:53 33.059312 -117.709498 283 7990ft 250kts
06-Sep-21 15:54 33.104862 -117.770851 318 7990ft 249kts
06-Sep-21 15:55 33.157101 -117.824497 319 7988ft 247kts
06-Sep-21 15:56 33.209689 -117.877347 320 7992ft 247kts
06-Sep-21 15:57 33.264950 -117.931289 320 8881ft 275kts
06-Sep-21 15:58 33.325141 -117.990097 322 10075ft 284kts
06-Sep-21 15:59 33.387079 -118.050709 321 11120ft 293kts
06-Sep-21 16:00 33.450516 -118.112923 322 12135ft 296kts
06-Sep-21 16:01 33.514175 -118.175469 322 13137ft 296kts
06-Sep-21 16:02 33.578820 -118.236477 333 14138ft 294kts
06-Sep-21 16:03 33.651964 -118.278066 337 15136ft 287kts
06-Sep-21 16:04 33.722782 -118.317138 337 16136ft 276kts
06-Sep-21 16:05 33.785189 -118.287670 50 17131ft 255kts
06-Sep-21 16:06 33.827513 -118.220559 55 18129ft 250kts
06-Sep-21 16:07 33.867726 -118.153017 55 19129ft 246kts
06-Sep-21 16:08 33.907212 -118.086420 55 20130ft 242kts
06-Sep-21 16:09 33.945833 -118.021158 55 21124ft 238kts
06-Sep-21 16:10 33.983708 -117.957042 55 22117ft 233kts
06-Sep-21 16:11 34.020769 -117.894190 55 22970ft 234kts
06-Sep-21 16:12 34.060784 -117.826206 55 22993ft 261kts
06-Sep-21 16:13 34.105661 -117.753856 51 22989ft 276kts
06-Sep-21 16:14 34.155282 -117.681290 51 22981ft 284kts
06-Sep-21 16:15 34.205825 -117.607334 51 22975ft 287kts
06-Sep-21 16:16 34.256358 -117.533244 51 22978ft 287kts
06-Sep-21 16:17 34.306941 -117.458927 51 22994ft 286kts
06-Sep-21 16:18 34.357310 -117.384764 51 23016ft 285kts
06-Sep-21 16:19 34.407523 -117.310677 51 23031ft 285kts
06-Sep-21 16:20 34.458040 -117.235984 51 23017ft 286kts
06-Sep-21 16:21 34.508302 -117.161514 51 23019ft 286kts
06-Sep-21 16:22 34.558645 -117.086764 51 23034ft 286kts
06-Sep-21 16:23 34.608916 -117.011965 51 23016ft 286kts
06-Sep-21 16:24 34.659009 -116.937272 51 22992ft 286kts
06-Sep-21 16:25 34.709081 -116.862454 51 22972ft 285kts
06-Sep-21 16:26 34.758821 -116.787974 51 22971ft 284kts
06-Sep-21 16:27 34.808277 -116.713760 51 22970ft 283kts
06-Sep-21 16:28 34.859246 -116.640872 41 22972ft 283kts
06-Sep-21 16:29 34.920507 -116.580575 39 22971ft 284kts
06-Sep-21 16:30 34.982435 -116.520506 39 22802ft 291kts
06-Sep-21 16:31 35.048187 -116.456622 39 21998ft 311kts
06-Sep-21 16:32 35.115166 -116.387495 45 21189ft 319kts
06-Sep-21 16:33 35.176543 -116.308250 47 20274ft 321kts
06-Sep-21 16:34 35.237116 -116.229506 48 19276ft 317kts
06-Sep-21 16:35 35.296110 -116.150131 48 18279ft 316kts
06-Sep-21 16:36 35.354991 -116.070736 48 17279ft 315kts
06-Sep-21 16:37 35.413540 -115.991619 48 16386ft 313kts
06-Sep-21 16:38 35.471521 -115.913114 48 15599ft 310kts
06-Sep-21 16:39 35.529204 -115.834842 48 14887ft 307kts
06-Sep-21 16:40 35.586110 -115.757462 48 14252ft 305kts
06-Sep-21 16:41 35.632622 -115.670974 59 13680ft 303kts
06-Sep-21 16:42 35.675296 -115.583401 59 13037ft 286kts
06-Sep-21 16:43 35.714832 -115.502084 59 11524ft 276kts
06-Sep-21 16:44 35.753900 -115.421663 59 10054ft 264kts
06-Sep-21 16:45 35.813371 -115.382914 17 9228ft 256kts
06-Sep-21 16:46 35.881540 -115.353405 21 7727ft 258kts
06-Sep-21 16:47 35.943237 -115.324635 21 7034ft 215kts
06-Sep-21 16:48 35.999814 -115.298477 21 7035ft 220kts
06-Sep-21 16:49 36.047089 -115.276738 21 7023ft 154kts
06-Sep-21 16:50 36.071187 -115.247355 74 6219ft 129kts
06-Sep-21 16:51 36.073879 -115.205943 88 4470ft 118kts
06-Sep-21 16:52 36.073620 -115.166950 87 2470ft 110kts
06-Sep-21 16:53 36.073660 -115.145167 88 2098ft 27kts
06-Sep-21 16:54 36.074261 -115.144891 294 2097ft 0kts
06-Sep-21 16:55 36.074261 -115.144891 294 2097ft 0kts

Navigation Log

Ident Type
Flight plan parsing failed, navigation log unavailable